createdAt,value
2019-02-15T00:00:13.150Z,4.80
2019-02-15T00:02:42.350Z,4.80
2019-02-15T00:05:11.594Z,4.80
2019-02-15T00:07:40.799Z,4.80
2019-02-15T00:10:10.016Z,4.70
2019-02-15T00:12:39.252Z,4.70
2019-02-15T00:15:08.499Z,4.70
2019-02-15T00:17:37.693Z,4.70
2019-02-15T00:20:07.003Z,4.70
2019-02-15T00:22:36.197Z,4.70
2019-02-15T00:25:05.516Z,4.70
2019-02-15T00:27:34.712Z,4.80
2019-02-15T00:30:06.360Z,4.80
2019-02-15T00:32:35.558Z,4.80
2019-02-15T00:35:05.258Z,4.90
2019-02-15T00:37:34.457Z,4.90
2019-02-15T00:40:04.887Z,4.80
2019-02-15T00:42:34.088Z,4.80
2019-02-15T00:45:05.088Z,4.80
2019-02-15T00:47:34.303Z,4.90
2019-02-15T00:50:06.215Z,4.90
2019-02-15T00:52:35.485Z,4.90
2019-02-15T00:55:05.292Z,4.90
2019-02-15T00:57:34.481Z,4.90
2019-02-15T01:00:05.011Z,4.90
2019-02-15T01:02:34.276Z,4.90
2019-02-15T01:05:04.248Z,4.80
2019-02-15T01:07:33.510Z,4.90
2019-02-15T01:12:53.123Z,4.80
2019-02-15T01:15:34.548Z,4.80
2019-02-15T01:18:16.081Z,4.90
2019-02-15T01:20:57.706Z,4.90
2019-02-15T01:23:39.461Z,4.90
2019-02-15T01:26:21.097Z,4.90
2019-02-15T01:29:02.670Z,4.90
2019-02-15T01:31:44.450Z,4.90
2019-02-15T01:34:25.598Z,4.90
2019-02-15T01:37:07.070Z,4.80
2019-02-15T01:39:48.182Z,4.80
2019-02-15T01:42:29.597Z,4.80
2019-02-15T01:45:11.201Z,4.80
2019-02-15T01:47:53.009Z,4.70
2019-02-15T01:50:34.617Z,4.70
2019-02-15T01:53:16.414Z,4.60
2019-02-15T01:55:58.268Z,4.60
2019-02-15T01:58:39.674Z,4.50
2019-02-15T02:01:21.421Z,4.50
2019-02-15T02:04:03.240Z,4.40
2019-02-15T02:06:44.869Z,4.40
2019-02-15T02:09:26.265Z,4.30
2019-02-15T02:12:07.700Z,4.30
2019-02-15T02:14:48.875Z,4.20
2019-02-15T02:17:30.295Z,4.10
2019-02-15T02:20:11.505Z,4.00
2019-02-15T02:22:53.367Z,4.00
2019-02-15T02:25:35.042Z,4.00
2019-02-15T02:28:16.509Z,3.90
2019-02-15T02:30:58.131Z,3.90
2019-02-15T02:33:39.556Z,3.80
2019-02-15T02:36:20.927Z,3.80
2019-02-15T02:39:02.737Z,3.80
2019-02-15T02:41:44.266Z,3.80
2019-02-15T02:44:25.413Z,3.80
2019-02-15T02:47:07.019Z,3.80
2019-02-15T02:49:48.661Z,3.80
2019-02-15T02:52:30.086Z,3.70
2019-02-15T02:55:11.588Z,3.70
2019-02-15T02:57:52.737Z,3.70
2019-02-15T03:00:34.197Z,3.70
2019-02-15T03:03:15.721Z,3.60
2019-02-15T03:05:57.172Z,3.60
2019-02-15T03:08:38.729Z,3.60
2019-02-15T03:11:18.527Z,3.60
2019-02-15T03:14:11.436Z,3.60
2019-02-15T03:17:16.847Z,3.60
2019-02-15T03:20:06.125Z,3.60
2019-02-15T03:22:54.668Z,3.60
2019-02-15T03:25:43.273Z,3.50
2019-02-15T03:28:31.866Z,3.50
2019-02-15T03:31:22.013Z,3.50
2019-02-15T03:34:10.575Z,3.50
2019-02-15T03:36:59.082Z,3.50
2019-02-15T03:39:49.223Z,3.40
2019-02-15T03:42:57.187Z,3.40
2019-02-15T03:45:45.779Z,3.40
2019-02-15T03:48:34.328Z,3.40
2019-02-15T03:51:22.850Z,3.30
2019-02-15T03:54:11.377Z,3.40
2019-02-15T03:56:59.889Z,3.30
2019-02-15T03:59:48.498Z,3.30
2019-02-15T04:02:37.477Z,3.30
2019-02-15T04:08:35.226Z,3.30
2019-02-15T04:11:04.406Z,3.20
2019-02-15T04:13:33.659Z,3.20
2019-02-15T04:16:02.855Z,3.20
2019-02-15T04:18:32.027Z,3.10
2019-02-15T04:21:01.217Z,3.10
2019-02-15T04:23:30.430Z,3.10
2019-02-15T04:25:59.656Z,3.10
2019-02-15T04:28:28.828Z,3.10
2019-02-15T04:30:58.035Z,3.00
2019-02-15T04:33:27.218Z,3.00
2019-02-15T04:35:56.487Z,3.00
2019-02-15T04:38:25.651Z,3.00
2019-02-15T04:40:54.842Z,3.00
2019-02-15T04:43:24.017Z,3.00
2019-02-15T04:45:53.266Z,3.00
2019-02-15T04:48:22.512Z,3.10
2019-02-15T04:50:51.791Z,3.10
2019-02-15T04:53:22.122Z,3.10
2019-02-15T04:55:51.347Z,3.10
2019-02-15T04:58:20.542Z,3.10
2019-02-15T05:00:49.726Z,3.10
2019-02-15T05:03:19.649Z,3.10
2019-02-15T05:05:48.998Z,3.10
2019-02-15T05:08:18.189Z,3.10
2019-02-15T05:10:47.374Z,3.10
2019-02-15T05:13:16.574Z,3.10
2019-02-15T05:15:45.858Z,3.00
2019-02-15T05:18:15.149Z,3.10
2019-02-15T05:20:44.326Z,3.00
2019-02-15T05:23:13.582Z,3.00
2019-02-15T05:25:42.762Z,3.00
2019-02-15T05:28:11.943Z,3.00
2019-02-15T05:30:42.037Z,2.90
2019-02-15T05:33:11.269Z,2.90
2019-02-15T05:35:40.514Z,2.90
2019-02-15T05:38:09.689Z,2.90
2019-02-15T05:40:38.874Z,2.90
2019-02-15T05:43:08.067Z,2.80
2019-02-15T05:45:37.242Z,2.80
2019-02-15T05:48:06.446Z,2.80
2019-02-15T05:50:35.610Z,2.80
2019-02-15T05:53:04.815Z,2.70
2019-02-15T05:55:34.129Z,2.70
2019-02-15T05:58:03.333Z,2.70
2019-02-15T06:00:37.107Z,2.70
2019-02-15T06:03:03.482Z,2.60
2019-02-15T06:05:32.726Z,2.60
2019-02-15T06:08:01.939Z,2.60
2019-02-15T06:10:31.130Z,2.60
2019-02-15T06:13:00.301Z,2.60
2019-02-15T06:15:29.505Z,2.60
2019-02-15T06:17:58.669Z,2.60
2019-02-15T06:20:27.849Z,2.60
2019-02-15T06:22:57.023Z,2.70
2019-02-15T06:25:26.284Z,2.60
2019-02-15T06:27:55.484Z,2.70
2019-02-15T06:30:24.681Z,2.70
2019-02-15T06:32:53.919Z,2.70
2019-02-15T06:35:23.125Z,2.70
2019-02-15T06:37:52.356Z,2.70
2019-02-15T06:40:21.549Z,2.70
2019-02-15T06:42:50.766Z,2.70
2019-02-15T06:45:24.717Z,2.70
2019-02-15T06:47:50.885Z,2.80
2019-02-15T06:50:20.196Z,2.80
2019-02-15T06:52:49.978Z,2.80
2019-02-15T06:55:19.141Z,2.80
2019-02-15T06:57:49.926Z,2.80
2019-02-15T07:00:19.129Z,2.80
2019-02-15T07:02:48.564Z,2.80
2019-02-15T07:05:17.758Z,2.80
2019-02-15T07:07:46.934Z,2.90
2019-02-15T07:10:16.109Z,2.90
2019-02-15T07:12:45.310Z,2.90
2019-02-15T07:15:14.644Z,3.00
2019-02-15T07:17:43.995Z,3.00
2019-02-15T07:20:15.208Z,3.00
2019-02-15T07:22:44.466Z,3.10
2019-02-15T07:25:13.645Z,3.10
2019-02-15T07:27:42.849Z,3.10
2019-02-15T07:30:15.387Z,3.10
2019-02-15T07:32:44.143Z,3.10
2019-02-15T07:35:13.400Z,3.10
2019-02-15T07:37:42.613Z,3.20
2019-02-15T07:40:11.864Z,3.20
2019-02-15T07:42:41.055Z,3.30
2019-02-15T07:45:10.873Z,3.40
2019-02-15T07:47:40.078Z,3.40
2019-02-15T07:50:13.295Z,3.50
2019-02-15T07:52:42.569Z,3.60
2019-02-15T07:55:11.901Z,3.70
2019-02-15T07:57:41.088Z,3.80
2019-02-15T08:00:12.616Z,3.80
2019-02-15T08:02:41.954Z,3.90
2019-02-15T08:05:11.201Z,4.00
2019-02-15T08:07:40.381Z,4.20
2019-02-15T08:10:10.525Z,4.20
2019-02-15T08:12:39.768Z,4.40
2019-02-15T08:15:10.015Z,4.50
2019-02-15T08:17:39.265Z,4.60
2019-02-15T08:20:11.331Z,4.70
2019-02-15T08:22:40.564Z,4.80
2019-02-15T08:25:09.934Z,4.90
2019-02-15T08:27:39.123Z,5.10
2019-02-15T08:30:10.190Z,5.30
2019-02-15T08:32:39.459Z,5.40
2019-02-15T08:35:09.998Z,5.50
2019-02-15T08:37:42.237Z,5.60
2019-02-15T08:40:11.646Z,5.80
2019-02-15T08:42:41.344Z,5.90
2019-02-15T08:45:12.265Z,6.10
2019-02-15T08:47:41.635Z,6.20
2019-02-15T08:50:11.777Z,6.40
2019-02-15T08:52:41.106Z,6.50
2019-02-15T08:55:11.361Z,6.70
2019-02-15T08:57:40.602Z,6.80
2019-02-15T09:00:12.984Z,7.00
2019-02-15T09:02:42.162Z,7.10
2019-02-15T09:05:12.067Z,7.30
2019-02-15T09:07:41.310Z,7.40
2019-02-15T09:10:12.125Z,7.70
2019-02-15T09:12:41.414Z,7.70
2019-02-15T09:15:16.154Z,7.80
2019-02-15T09:17:45.339Z,8.00
2019-02-15T09:20:14.505Z,8.10
2019-02-15T09:22:49.413Z,8.30
2019-02-15T09:25:18.605Z,8.40
2019-02-15T09:27:47.869Z,8.50
2019-02-15T09:30:17.148Z,8.60
2019-02-15T09:32:46.416Z,8.70
2019-02-15T09:35:15.660Z,8.80
2019-02-15T09:37:44.841Z,8.90
2019-02-15T09:40:14.032Z,9.00
2019-02-15T09:42:43.298Z,9.10
2019-02-15T09:45:12.596Z,9.20
2019-02-15T09:47:41.793Z,9.20
2019-02-15T09:50:12.255Z,9.30
2019-02-15T16:40:22.298Z,14.20
2019-02-15T16:42:51.605Z,14.10
2019-02-15T16:45:23.454Z,14.00
2019-02-15T16:47:52.841Z,13.90
2019-02-15T16:50:22.148Z,13.80
2019-02-15T16:52:51.604Z,13.70
2019-02-15T16:55:20.903Z,13.60
2019-02-15T16:57:50.104Z,13.50
2019-02-15T17:00:19.459Z,13.40
2019-02-15T17:02:48.823Z,13.30
2019-02-15T17:05:18.006Z,13.20
2019-02-15T17:07:47.288Z,13.10
2019-02-15T17:10:16.566Z,13.00
2019-02-15T17:12:45.821Z,12.90
2019-02-15T17:15:15.466Z,12.80
2019-02-15T17:17:44.688Z,12.70
2019-02-15T17:20:13.861Z,12.70
2019-02-15T17:22:43.086Z,12.60
2019-02-15T17:25:12.379Z,12.50
2019-02-15T17:27:41.681Z,12.40
2019-02-15T17:30:11.362Z,12.40
2019-02-15T17:32:40.635Z,12.30
2019-02-15T17:35:10.792Z,12.30
2019-02-15T17:37:39.981Z,12.20
2019-02-15T17:40:12.618Z,12.20
2019-02-15T17:42:41.892Z,12.10
2019-02-15T17:45:11.680Z,12.10
2019-02-15T17:47:41.053Z,12.00
2019-02-15T17:50:11.302Z,11.90
2019-02-15T17:52:41.441Z,11.90
2019-02-15T17:55:10.830Z,11.90
2019-02-15T17:57:40.034Z,11.80
2019-02-15T18:00:13.719Z,11.80
2019-02-15T18:02:43.027Z,11.70
2019-02-15T18:05:14.282Z,11.70
2019-02-15T18:07:44.407Z,11.70
2019-02-15T18:10:13.692Z,11.70
2019-02-15T18:12:42.940Z,11.60
2019-02-15T18:15:12.155Z,11.60
2019-02-15T18:17:41.365Z,11.60
2019-02-15T18:20:10.652Z,11.60
2019-02-15T18:22:39.818Z,11.50
2019-02-15T18:25:09.082Z,11.50
2019-02-15T18:27:38.509Z,11.50
2019-02-15T18:30:10.823Z,11.50
2019-02-15T18:32:40.164Z,11.50
2019-02-15T18:35:09.537Z,11.50
2019-02-15T18:37:38.822Z,11.50
2019-02-15T18:40:09.460Z,11.40
2019-02-15T18:42:38.695Z,11.50
2019-02-15T18:45:12.894Z,11.40
2019-02-15T18:47:42.189Z,11.40
2019-02-15T18:50:11.571Z,11.30
2019-02-15T18:52:40.877Z,11.30
2019-02-15T18:55:10.807Z,11.20
2019-02-15T18:57:40.110Z,11.10
2019-02-15T19:00:18.151Z,11.00
2019-02-15T19:02:49.220Z,11.00
2019-02-15T19:05:18.499Z,10.90
2019-02-15T19:07:47.738Z,10.90
2019-02-15T19:10:21.627Z,10.80
2019-02-15T19:12:50.877Z,10.70
2019-02-15T19:15:20.159Z,10.60
2019-02-15T19:17:49.456Z,10.50
2019-02-15T19:20:18.798Z,10.50
2019-02-15T19:22:48.094Z,10.40
2019-02-15T19:25:19.149Z,10.30
2019-02-15T19:27:48.446Z,10.30
2019-02-15T19:30:29.839Z,10.20
2019-02-15T19:32:59.152Z,10.20
2019-02-15T19:35:28.549Z,10.10
2019-02-15T19:37:58.137Z,10.10
2019-02-15T19:40:27.665Z,10.10
2019-02-15T19:43:05.810Z,10.00
2019-02-15T19:45:35.198Z,10.00
2019-02-15T19:48:04.410Z,10.00
2019-02-15T19:50:33.725Z,9.90
2019-02-15T19:53:03.051Z,9.90
2019-02-15T19:55:32.321Z,9.90
2019-02-15T19:58:01.614Z,9.90
2019-02-15T20:00:30.863Z,9.90
2019-02-15T20:03:00.223Z,9.90
2019-02-15T20:05:29.588Z,9.80
2019-02-15T20:07:58.800Z,9.80
2019-02-15T20:10:28.265Z,9.90
2019-02-15T20:12:57.539Z,9.90
2019-02-15T20:15:26.826Z,9.90
2019-02-15T20:17:56.118Z,9.90
2019-02-15T20:20:25.335Z,9.90
2019-02-15T20:22:54.526Z,9.90
2019-02-15T20:25:23.760Z,9.90
2019-02-15T20:27:52.950Z,9.90
2019-02-15T20:30:22.901Z,9.90
2019-02-15T20:32:52.266Z,9.90
2019-02-15T20:35:21.530Z,9.90
2019-02-15T20:37:50.786Z,9.90
2019-02-15T20:40:20.038Z,9.90
2019-02-15T20:42:49.339Z,9.90
2019-02-15T20:45:23.150Z,9.90
2019-02-15T20:47:52.381Z,9.90
2019-02-15T20:50:22.966Z,9.90
2019-02-15T20:52:52.330Z,9.80
2019-02-15T20:55:21.585Z,9.80
2019-02-15T20:57:50.781Z,9.70
2019-02-15T21:00:25.218Z,9.70
2019-02-15T21:02:54.559Z,9.60
2019-02-15T21:05:23.835Z,9.60
2019-02-15T21:07:53.137Z,9.50
2019-02-15T21:10:22.462Z,9.50
2019-02-15T21:12:51.770Z,9.40
2019-02-15T21:15:21.094Z,9.40
2019-02-15T21:17:50.352Z,9.30
2019-02-15T21:20:20.031Z,9.30
2019-02-15T21:22:49.263Z,9.20
2019-02-15T21:25:18.636Z,9.20
2019-02-15T21:27:48.059Z,9.10
2019-02-15T21:30:18.460Z,9.10
2019-02-15T21:32:47.685Z,9.00
2019-02-15T21:35:16.994Z,8.90
2019-02-15T21:37:46.173Z,8.90
2019-02-15T21:40:17.365Z,8.80
2019-02-15T21:42:46.564Z,8.80
2019-02-15T21:45:15.975Z,8.80
2019-02-15T21:47:45.296Z,8.70
2019-02-15T21:50:17.390Z,8.70
2019-02-15T21:52:45.626Z,8.60
2019-02-15T21:55:15.769Z,8.60
2019-02-15T21:57:45.032Z,8.50
2019-02-15T22:00:19.564Z,8.50
2019-02-15T22:02:48.797Z,8.40
2019-02-15T22:05:18.070Z,8.40
2019-02-15T22:07:47.261Z,8.30
2019-02-15T22:10:16.682Z,8.30
2019-02-15T22:12:45.991Z,8.30
2019-02-15T22:15:16.545Z,8.20
2019-02-15T22:17:45.811Z,8.20
2019-02-15T22:20:16.143Z,8.10
2019-02-15T22:22:45.361Z,8.10
2019-02-15T22:25:14.606Z,8.00
2019-02-15T22:27:43.827Z,8.00
2019-02-15T22:30:14.902Z,7.90
2019-02-15T22:32:44.169Z,7.80
2019-02-15T22:35:13.483Z,7.80
2019-02-15T22:37:42.761Z,7.80
2019-02-15T22:40:24.021Z,7.70
2019-02-15T22:42:53.353Z,7.70
2019-02-15T22:45:22.578Z,7.60
2019-02-15T22:47:51.782Z,7.50
2019-02-15T22:50:21.068Z,7.50
2019-02-15T22:52:50.355Z,7.50
2019-02-15T22:55:19.594Z,7.50
2019-02-15T22:57:49.100Z,7.40
2019-02-15T23:00:35.731Z,7.40
2019-02-15T23:03:04.998Z,7.40
2019-02-15T23:05:34.189Z,7.40
2019-02-15T23:08:03.369Z,7.30
2019-02-15T23:10:32.709Z,7.30
2019-02-15T23:13:01.952Z,7.30
2019-02-15T23:15:31.161Z,7.20
2019-02-15T23:18:00.372Z,7.20
2019-02-15T23:20:29.563Z,7.20
2019-02-15T23:22:58.842Z,7.20
2019-02-15T23:25:28.090Z,7.10
2019-02-15T23:27:57.289Z,7.10
2019-02-15T23:30:26.450Z,7.10
2019-02-15T23:32:55.630Z,7.10
2019-02-15T23:35:25.068Z,7.10
2019-02-15T23:37:54.310Z,7.10
2019-02-15T23:40:23.567Z,7.00
2019-02-15T23:42:52.810Z,7.00
2019-02-15T23:45:22.100Z,7.00
2019-02-15T23:47:51.329Z,6.90
2019-02-15T23:50:20.590Z,6.90
2019-02-15T23:52:49.843Z,6.90
2019-02-15T23:55:20.642Z,6.80
2019-02-15T23:57:49.879Z,6.80
